Parksville, Canada
Current Conditions -  °F | °C
As of 5:11 PM on Saturday 25 Oct 2014 (Local Time) from CYCD Reporting Station
Light Rain Light Rain  
Wind Chill: 50°   Ceiling: 600
Heat Index: 50°   Visibility: 1.5mi
Dew Point: 48°   Wind: 0mph
Humidity: 94%   Direction: NA
Pressure: 29.31"   Gusts: NA
Location:  49.32°N, 124.31°W
Report Text: CYCD 260011Z 00000KT 1 1/2SM -RA BR VCFG FEW003 BKN006 OVC025 10/09 A2931 RMK SF2SF3SC3 SLP924 DENSITY ALT 100FT
Loading
Personal Weather Stations






























Interactive Weather Map New forecast layout! Learn more

10-Day Weather Forecast

Advertisements
Track Severe Weather on mobile